OMAL/AAN METAR and TAF weather

Enter ICAO airport designator
Station Type Date Time Source
OMAL METAR 2022/08/16 20:00 UTC NOAA

OMAL 162000Z 01007KT 9000 NSC 35/24 Q1000 NOSIG


Station Type Date Time Source
OMAL Decoded METAR 2022/08/16 20:00 UTC NOAA

Al Ain International Airport, United Arab Emirates (OMAL) 24-16N 055-36E 262M
Aug 16, 2022 - 04:00 PM EDT / 2022.08.16 2000 UTC
Wind: from the N (010 degrees) at 8 MPH (7 KT):0
Visibility: 5 mile(s):0
Temperature: 95 F (35 C)
Heat index: 107.4 F (41.9 C):1
Dew Point: 75 F (24 C)
Relative Humidity: 53%
Pressure (altimeter): 29.53 in. Hg (1000 hPa)
ob: OMAL 162000Z 01007KT 9000 NSC 35/24 Q1000 NOSIG
cycle: 20

Station Type Date Time Source
OMAL TAF 2022/08/16 18:55 UTC NOAA

TAF OMAL 161700Z 1618/1800 36008KT 8000 NSC
BECMG 1621/1623 07006KT
BECMG 1702/1704 16010KT
BECMG 1708/1710 32012KT

Example: see airport list